sensor_id;sensor_type;location;lat;lon;timestamp;pressure;altitude;pressure_sealevel;temperature;humidity
71424;BME280;59240;51.370;-0.486;2023-03-18T00:02:19;100423.56;;;10.85;96.18
71424;BME280;59240;51.370;-0.486;2023-03-18T00:04:47;100396.38;;;10.64;96.95
71424;BME280;59240;51.370;-0.486;2023-03-18T00:07:13;100412.81;;;10.66;96.44
71424;BME280;59240;51.370;-0.486;2023-03-18T00:09:41;100399.22;;;10.55;97.37
71424;BME280;59240;51.370;-0.486;2023-03-18T00:12:08;100390.66;;;10.50;96.53
71424;BME280;59240;51.370;-0.486;2023-03-18T00:14:36;100441.19;;;10.75;97.63
71424;BME280;59240;51.370;-0.486;2023-03-18T00:17:04;100415.59;;;10.60;97.12
71424;BME280;59240;51.370;-0.486;2023-03-18T00:19:31;100424.09;;;10.66;97.00
71424;BME280;59240;51.370;-0.486;2023-03-18T00:21:58;100423.28;;;10.63;96.74
71424;BME280;59240;51.370;-0.486;2023-03-18T00:24:25;100394.28;;;10.46;97.00
71424;BME280;59240;51.370;-0.486;2023-03-18T00:26:53;100402.69;;;10.55;97.68
71424;BME280;59240;51.370;-0.486;2023-03-18T00:29:22;100427.44;;;10.70;96.96
71424;BME280;59240;51.370;-0.486;2023-03-18T00:31:50;100435.09;;;10.76;97.29
71424;BME280;59240;51.370;-0.486;2023-03-18T00:34:17;100430.72;;;10.78;97.42
71424;BME280;59240;51.370;-0.486;2023-03-18T00:36:43;100417.91;;;10.69;97.24
71424;BME280;59240;51.370;-0.486;2023-03-18T00:39:11;100405.97;;;10.62;96.97
71424;BME280;59240;51.370;-0.486;2023-03-18T00:41:38;100428.91;;;10.80;97.32
71424;BME280;59240;51.370;-0.486;2023-03-18T00:44:05;100393.00;;;10.60;96.92
71424;BME280;59240;51.370;-0.486;2023-03-18T00:46:34;100438.34;;;10.84;97.40
71424;BME280;59240;51.370;-0.486;2023-03-18T00:49:05;100375.03;;;10.51;97.52
71424;BME280;59240;51.370;-0.486;2023-03-18T00:51:33;100416.03;;;10.74;97.82
71424;BME280;59240;51.370;-0.486;2023-03-18T00:54:04;100434.75;;;10.88;98.15
71424;BME280;59240;51.370;-0.486;2023-03-18T00:56:33;100398.78;;;10.70;97.26
71424;BME280;59240;51.370;-0.486;2023-03-18T00:59:02;100432.88;;;10.93;97.60
71424;BME280;59240;51.370;-0.486;2023-03-18T01:01:30;100412.28;;;10.84;97.39
71424;BME280;59240;51.370;-0.486;2023-03-18T01:03:57;100401.94;;;10.81;96.98
71424;BME280;59240;51.370;-0.486;2023-03-18T01:06:27;100425.00;;;10.95;98.14
71424;BME280;59240;51.370;-0.486;2023-03-18T01:08:56;100419.84;;;10.93;96.92
71424;BME280;59240;51.370;-0.486;2023-03-18T01:11:24;100399.34;;;10.81;96.91
71424;BME280;59240;51.370;-0.486;2023-03-18T01:13:51;100401.09;;;10.81;96.83
71424;BME280;59240;51.370;-0.486;2023-03-18T01:16:19;100421.66;;;10.90;96.68
71424;BME280;59240;51.370;-0.486;2023-03-18T01:18:46;100417.41;;;10.87;97.33
71424;BME280;59240;51.370;-0.486;2023-03-18T01:21:13;100392.66;;;10.73;96.28
71424;BME280;59240;51.370;-0.486;2023-03-18T01:23:40;100382.69;;;10.57;97.08
71424;BME280;59240;51.370;-0.486;2023-03-18T01:26:08;100376.63;;;10.57;96.55
71424;BME280;59240;51.370;-0.486;2023-03-18T01:28:36;100402.28;;;10.69;96.68
71424;BME280;59240;51.370;-0.486;2023-03-18T01:31:02;100373.28;;;10.52;97.17
71424;BME280;59240;51.370;-0.486;2023-03-18T01:33:30;100400.69;;;10.65;96.99
71424;BME280;59240;51.370;-0.486;2023-03-18T01:35:59;100407.50;;;10.69;97.69
71424;BME280;59240;51.370;-0.486;2023-03-18T01:38:26;100376.00;;;10.47;96.73
71424;BME280;59240;51.370;-0.486;2023-03-18T01:40:57;100388.72;;;10.58;96.79
71424;BME280;59240;51.370;-0.486;2023-03-18T01:43:28;100385.41;;;10.53;97.77
71424;BME280;59240;51.370;-0.486;2023-03-18T01:45:58;100404.00;;;10.70;97.38
71424;BME280;59240;51.370;-0.486;2023-03-18T01:48:29;100387.09;;;10.54;97.73
71424;BME280;59240;51.370;-0.486;2023-03-18T01:51:03;100394.63;;;10.64;98.21
71424;BME280;59240;51.370;-0.486;2023-03-18T01:53:35;100403.19;;;10.68;98.50
71424;BME280;59240;51.370;-0.486;2023-03-18T01:56:05;100400.41;;;10.74;97.92
71424;BME280;59240;51.370;-0.486;2023-03-18T01:58:36;100345.59;;;10.48;98.63
71424;BME280;59240;51.370;-0.486;2023-03-18T02:01:08;100355.84;;;10.54;99.04
71424;BME280;59240;51.370;-0.486;2023-03-18T02:03:40;100391.69;;;10.75;98.01
71424;BME280;59240;51.370;-0.486;2023-03-18T02:06:07;100376.16;;;10.72;97.05
71424;BME280;59240;51.370;-0.486;2023-03-18T02:08:37;100388.00;;;10.82;97.32
71424;BME280;59240;51.370;-0.486;2023-03-18T02:11:06;100394.84;;;10.86;97.63
71424;BME280;59240;51.370;-0.486;2023-03-18T02:13:41;100367.44;;;10.73;99.43
71424;BME280;59240;51.370;-0.486;2023-03-18T02:16:26;100348.66;;;10.62;99.37
71424;BME280;59240;51.370;-0.486;2023-03-18T02:18:57;100360.44;;;10.75;98.60
71424;BME280;59240;51.370;-0.486;2023-03-18T02:21:52;100399.72;;;10.99;100.00
71424;BME280;59240;51.370;-0.486;2023-03-18T02:24:48;100384.88;;;11.01;98.97
71424;BME280;59240;51.370;-0.486;2023-03-18T02:27:19;100380.47;;;11.03;100.00
71424;BME280;59240;51.370;-0.486;2023-03-18T02:29:47;100342.13;;;10.78;97.72
71424;BME280;59240;51.370;-0.486;2023-03-18T02:32:16;100355.59;;;10.91;97.59
71424;BME280;59240;51.370;-0.486;2023-03-18T02:34:44;100371.84;;;11.01;97.06
71424;BME280;59240;51.370;-0.486;2023-03-18T02:37:11;100362.38;;;10.98;97.67
71424;BME280;59240;51.370;-0.486;2023-03-18T02:39:38;100342.75;;;10.86;97.25
71424;BME280;59240;51.370;-0.486;2023-03-18T02:42:05;100380.31;;;11.07;97.73
71424;BME280;59240;51.370;-0.486;2023-03-18T02:44:35;100375.16;;;11.06;97.43
71424;BME280;59240;51.370;-0.486;2023-03-18T02:47:17;100376.75;;;11.10;100.00
71424;BME280;59240;51.370;-0.486;2023-03-18T02:49:46;100369.94;;;11.06;97.71
71424;BME280;59240;51.370;-0.486;2023-03-18T02:52:13;100326.31;;;10.84;97.29
71424;BME280;59240;51.370;-0.486;2023-03-18T02:54:40;100377.59;;;11.12;97.18
71424;BME280;59240;51.370;-0.486;2023-03-18T02:57:07;100361.31;;;11.04;97.51
71424;BME280;59240;51.370;-0.486;2023-03-18T02:59:34;100364.81;;;11.03;96.77
71424;BME280;59240;51.370;-0.486;2023-03-18T03:02:01;100387.78;;;11.19;97.13
71424;BME280;59240;51.370;-0.486;2023-03-18T03:04:27;100383.41;;;11.20;96.59
71424;BME280;59240;51.370;-0.486;2023-03-18T03:06:55;100374.09;;;11.13;97.05
71424;BME280;59240;51.370;-0.486;2023-03-18T03:09:22;100377.38;;;11.18;97.26
71424;BME280;59240;51.370;-0.486;2023-03-18T03:11:49;100383.19;;;11.28;97.43
71424;BME280;59240;51.370;-0.486;2023-03-18T03:14:17;100383.22;;;11.26;97.11
71424;BME280;59240;51.370;-0.486;2023-03-18T03:16:43;100369.38;;;11.24;97.26
71424;BME280;59240;51.370;-0.486;2023-03-18T03:19:10;100369.38;;;11.24;97.03
71424;BME280;59240;51.370;-0.486;2023-03-18T03:21:37;100371.19;;;11.22;97.44
71424;BME280;59240;51.370;-0.486;2023-03-18T03:24:05;100392.50;;;11.35;96.71
71424;BME280;59240;51.370;-0.486;2023-03-18T03:26:33;100381.50;;;11.25;96.68
71424;BME280;59240;51.370;-0.486;2023-03-18T03:29:01;100359.22;;;11.15;97.03
71424;BME280;59240;51.370;-0.486;2023-03-18T03:31:29;100378.00;;;11.26;96.71
71424;BME280;59240;51.370;-0.486;2023-03-18T03:33:56;100403.50;;;11.44;96.82
71424;BME280;59240;51.370;-0.486;2023-03-18T03:36:24;100366.88;;;11.21;96.99
71424;BME280;59240;51.370;-0.486;2023-03-18T03:38:51;100405.31;;;11.42;97.53
71424;BME280;59240;51.370;-0.486;2023-03-18T03:41:17;100403.69;;;11.38;96.93
71424;BME280;59240;51.370;-0.486;2023-03-18T03:43:44;100364.34;;;11.18;96.61
71424;BME280;59240;51.370;-0.486;2023-03-18T03:46:11;100398.44;;;11.40;96.74
71424;BME280;59240;51.370;-0.486;2023-03-18T03:48:37;100409.50;;;11.48;96.63
71424;BME280;59240;51.370;-0.486;2023-03-18T03:51:05;100416.41;;;11.49;96.72
71424;BME280;59240;51.370;-0.486;2023-03-18T03:53:33;100401.06;;;11.40;97.27
71424;BME280;59240;51.370;-0.486;2023-03-18T03:56:02;100408.59;;;11.49;96.87
71424;BME280;59240;51.370;-0.486;2023-03-18T03:58:29;100412.88;;;11.50;96.76
71424;BME280;59240;51.370;-0.486;2023-03-18T04:00:56;100404.47;;;11.42;96.92
71424;BME280;59240;51.370;-0.486;2023-03-18T04:03:23;100384.81;;;11.30;96.66
71424;BME280;59240;51.370;-0.486;2023-03-18T04:05:52;100407.88;;;11.44;96.83
71424;BME280;59240;51.370;-0.486;2023-03-18T04:08:19;100395.84;;;11.40;96.63
71424;BME280;59240;51.370;-0.486;2023-03-18T04:10:46;100417.38;;;11.46;97.02
71424;BME280;59240;51.370;-0.486;2023-03-18T04:13:13;100394.22;;;11.36;96.94
71424;BME280;59240;51.370;-0.486;2023-03-18T04:15:39;100413.75;;;11.50;96.19
71424;BME280;59240;51.370;-0.486;2023-03-18T04:18:07;100429.31;;;11.54;97.40
71424;BME280;59240;51.370;-0.486;2023-03-18T04:20:35;100430.19;;;11.52;97.01
71424;BME280;59240;51.370;-0.486;2023-03-18T04:23:03;100408.91;;;11.38;96.45
71424;BME280;59240;51.370;-0.486;2023-03-18T04:25:30;100406.41;;;11.35;96.78
71424;BME280;59240;51.370;-0.486;2023-03-18T04:27:57;100416.47;;;11.46;96.08
71424;BME280;59240;51.370;-0.486;2023-03-18T04:30:24;100429.41;;;11.50;97.09
71424;BME280;59240;51.370;-0.486;2023-03-18T04:32:52;100410.63;;;11.39;96.57
71424;BME280;59240;51.370;-0.486;2023-03-18T04:35:20;100417.44;;;11.43;96.22
71424;BME280;59240;51.370;-0.486;2023-03-18T04:37:48;100413.06;;;11.44;96.39
71424;BME280;59240;51.370;-0.486;2023-03-18T04:40:15;100409.81;;;11.37;96.50
71424;BME280;59240;51.370;-0.486;2023-03-18T04:42:43;100380.66;;;11.24;96.00
71424;BME280;59240;51.370;-0.486;2023-03-18T04:45:14;100405.38;;;11.41;96.85
71424;BME280;59240;51.370;-0.486;2023-03-18T04:47:41;100397.53;;;11.41;95.89
71424;BME280;59240;51.370;-0.486;2023-03-18T04:50:09;100365.97;;;11.22;96.66
71424;BME280;59240;51.370;-0.486;2023-03-18T04:52:39;100399.97;;;11.45;96.36
71424;BME280;59240;51.370;-0.486;2023-03-18T04:55:06;100420.59;;;11.55;96.44
71424;BME280;59240;51.370;-0.486;2023-03-18T04:57:34;100416.28;;;11.54;96.40
71424;BME280;59240;51.370;-0.486;2023-03-18T05:00:07;100385.44;;;11.38;97.47
71424;BME280;59240;51.370;-0.486;2023-03-18T05:02:38;100395.00;;;11.39;96.80
71424;BME280;59240;51.370;-0.486;2023-03-18T05:05:06;100408.47;;;11.52;96.27
71424;BME280;59240;51.370;-0.486;2023-03-18T05:07:33;100382.16;;;11.32;96.32
71424;BME280;59240;51.370;-0.486;2023-03-18T05:09:59;100379.53;;;11.33;95.95
71424;BME280;59240;51.370;-0.486;2023-03-18T05:12:26;100384.75;;;11.33;95.75
71424;BME280;59240;51.370;-0.486;2023-03-18T05:14:52;100377.19;;;11.24;95.54
71424;BME280;59240;51.370;-0.486;2023-03-18T05:17:19;100358.44;;;11.13;96.00
71424;BME280;59240;51.370;-0.486;2023-03-18T05:19:47;100398.03;;;11.26;95.75
71424;BME280;59240;51.370;-0.486;2023-03-18T05:22:16;100395.63;;;11.18;96.16
71424;BME280;59240;51.370;-0.486;2023-03-18T05:24:43;100395.78;;;11.13;95.09
71424;BME280;59240;51.370;-0.486;2023-03-18T05:27:15;100387.38;;;11.04;96.21
71424;BME280;59240;51.370;-0.486;2023-03-18T05:29:44;100391.16;;;10.93;95.17
71424;BME280;59240;51.370;-0.486;2023-03-18T05:32:11;100381.88;;;10.85;95.65
71424;BME280;59240;51.370;-0.486;2023-03-18T05:34:40;100399.78;;;10.95;95.32
71424;BME280;59240;51.370;-0.486;2023-03-18T05:37:09;100373.38;;;10.78;98.03
71424;BME280;59240;51.370;-0.486;2023-03-18T05:39:37;100398.84;;;10.98;96.08
71424;BME280;59240;51.370;-0.486;2023-03-18T05:42:04;100370.59;;;10.84;95.99
71424;BME280;59240;51.370;-0.486;2023-03-18T05:44:31;100388.69;;;10.89;96.41
71424;BME280;59240;51.370;-0.486;2023-03-18T05:46:59;100380.91;;;10.87;96.41
71424;BME280;59240;51.370;-0.486;2023-03-18T05:49:27;100362.97;;;10.77;96.32
71424;BME280;59240;51.370;-0.486;2023-03-18T05:51:54;100385.16;;;10.91;95.69
71424;BME280;59240;51.370;-0.486;2023-03-18T05:54:21;100350.72;;;10.80;95.83
71424;BME280;59240;51.370;-0.486;2023-03-18T05:56:48;100402.88;;;11.08;96.58
71424;BME280;59240;51.370;-0.486;2023-03-18T05:59:18;100375.44;;;10.96;96.04
71424;BME280;59240;51.370;-0.486;2023-03-18T06:01:45;100380.38;;;11.06;96.27
71424;BME280;59240;51.370;-0.486;2023-03-18T06:04:11;100383.72;;;11.09;96.43
71424;BME280;59240;51.370;-0.486;2023-03-18T06:06:38;100389.66;;;11.14;95.98
71424;BME280;59240;51.370;-0.486;2023-03-18T06:09:07;100356.56;;;10.88;96.61
71424;BME280;59240;51.370;-0.486;2023-03-18T06:11:34;100385.50;;;11.09;96.49
71424;BME280;59240;51.370;-0.486;2023-03-18T06:14:01;100389.06;;;11.05;96.12
71424;BME280;59240;51.370;-0.486;2023-03-18T06:16:31;100399.13;;;11.17;96.36
71424;BME280;59240;51.370;-0.486;2023-03-18T06:18:58;100397.53;;;11.13;96.05
71424;BME280;59240;51.370;-0.486;2023-03-18T06:21:25;100405.03;;;11.23;96.33
71424;BME280;59240;51.370;-0.486;2023-03-18T06:23:53;100345.41;;;10.85;96.00
71424;BME280;59240;51.370;-0.486;2023-03-18T06:26:20;100366.53;;;11.04;96.05
71424;BME280;59240;51.370;-0.486;2023-03-18T06:28:47;100393.91;;;11.17;95.82
71424;BME280;59240;51.370;-0.486;2023-03-18T06:31:14;100381.97;;;11.10;95.58
71424;BME280;59240;51.370;-0.486;2023-03-18T06:33:41;100358.09;;;10.95;95.87
71424;BME280;59240;51.370;-0.486;2023-03-18T06:36:16;100381.19;;;11.08;97.18
71424;BME280;59240;51.370;-0.486;2023-03-18T06:38:46;100386.44;;;11.06;96.66
71424;BME280;59240;51.370;-0.486;2023-03-18T06:41:24;100394.94;;;11.13;95.99
71424;BME280;59240;51.370;-0.486;2023-03-18T06:43:54;100406.88;;;11.20;96.32
71424;BME280;59240;51.370;-0.486;2023-03-18T06:46:24;100396.59;;;11.15;95.79
71424;BME280;59240;51.370;-0.486;2023-03-18T06:48:51;100395.63;;;11.18;96.24
71424;BME280;59240;51.370;-0.486;2023-03-18T06:51:25;100415.22;;;11.31;96.80
71424;BME280;59240;51.370;-0.486;2023-03-18T06:53:57;100381.91;;;11.13;95.81
71424;BME280;59240;51.370;-0.486;2023-03-18T06:56:42;100420.19;;;11.39;95.77
71424;BME280;59240;51.370;-0.486;2023-03-18T06:59:11;100398.78;;;11.29;95.59
71424;BME280;59240;51.370;-0.486;2023-03-18T07:01:40;100405.63;;;11.32;95.48
71424;BME280;59240;51.370;-0.486;2023-03-18T07:04:16;100411.63;;;11.35;97.72
71424;BME280;59240;51.370;-0.486;2023-03-18T07:06:43;100373.25;;;11.11;95.40
71424;BME280;59240;51.370;-0.486;2023-03-18T07:09:18;100411.50;;;11.38;95.89
71424;BME280;59240;51.370;-0.486;2023-03-18T07:11:46;100379.97;;;11.18;95.29
71424;BME280;59240;51.370;-0.486;2023-03-18T07:14:13;100419.25;;;11.41;95.50
71424;BME280;59240;51.370;-0.486;2023-03-18T07:16:40;100428.59;;;11.48;95.36
71424;BME280;59240;51.370;-0.486;2023-03-18T07:19:07;100388.53;;;11.23;94.98
71424;BME280;59240;51.370;-0.486;2023-03-18T07:21:34;100436.31;;;11.51;95.08
71424;BME280;59240;51.370;-0.486;2023-03-18T07:24:09;100429.50;;;11.47;96.16
71424;BME280;59240;51.370;-0.486;2023-03-18T07:26:39;100408.09;;;11.36;96.15
71424;BME280;59240;51.370;-0.486;2023-03-18T07:29:06;100384.34;;;11.17;95.59
71424;BME280;59240;51.370;-0.486;2023-03-18T07:31:36;100429.50;;;11.47;95.02
71424;BME280;59240;51.370;-0.486;2023-03-18T07:34:07;100409.91;;;11.34;95.58
71424;BME280;59240;51.370;-0.486;2023-03-18T07:36:37;100454.44;;;11.56;94.94
71424;BME280;59240;51.370;-0.486;2023-03-18T07:39:12;100416.88;;;11.34;94.58
71424;BME280;59240;51.370;-0.486;2023-03-18T07:41:38;100416.41;;;11.21;94.66
71424;BME280;59240;51.370;-0.486;2023-03-18T07:44:05;100443.81;;;11.34;95.13
71424;BME280;59240;51.370;-0.486;2023-03-18T07:46:33;100459.19;;;11.43;94.77
71424;BME280;59240;51.370;-0.486;2023-03-18T07:48:59;100399.31;;;11.11;94.94
71424;BME280;59240;51.370;-0.486;2023-03-18T07:51:26;100461.78;;;11.43;95.10
71424;BME280;59240;51.370;-0.486;2023-03-18T07:53:53;100422.56;;;11.18;94.75
71424;BME280;59240;51.370;-0.486;2023-03-18T07:56:20;100460.19;;;11.39;94.85
71424;BME280;59240;51.370;-0.486;2023-03-18T07:58:47;100442.47;;;11.21;94.65
71424;BME280;59240;51.370;-0.486;2023-03-18T08:01:15;100473.41;;;11.33;95.07
71424;BME280;59240;51.370;-0.486;2023-03-18T08:03:45;100429.97;;;11.03;94.47
71424;BME280;59240;51.370;-0.486;2023-03-18T08:06:35;100461.72;;;11.17;97.75
71424;BME280;59240;51.370;-0.486;2023-03-18T08:14:18;100482.66;;;11.14;99.18
71424;BME280;59240;51.370;-0.486;2023-03-18T08:17:06;100451.16;;;10.92;96.24
71424;BME280;59240;51.370;-0.486;2023-03-18T08:23:41;100377.03;;;10.41;96.88
71424;BME280;59240;51.370;-0.486;2023-03-18T08:26:25;100415.47;;;10.63;97.05
71424;BME280;59240;51.370;-0.486;2023-03-18T08:28:57;100400.06;;;10.57;97.55
71424;BME280;59240;51.370;-0.486;2023-03-18T08:31:33;100440.41;;;10.73;97.83
71424;BME280;59240;51.370;-0.486;2023-03-18T08:34:16;100407.94;;;10.54;99.70
71424;BME280;59240;51.370;-0.486;2023-03-18T08:40:21;100409.75;;;10.52;99.97
71424;BME280;59240;51.370;-0.486;2023-03-18T08:42:48;100450.66;;;10.79;100.00
71424;BME280;59240;51.370;-0.486;2023-03-18T08:45:15;100435.44;;;10.64;100.00
71424;BME280;59240;51.370;-0.486;2023-03-18T08:47:50;100437.00;;;10.71;100.00
71424;BME280;59240;51.370;-0.486;2023-03-18T08:50:19;100471.31;;;10.85;100.00
71424;BME280;59240;51.370;-0.486;2023-03-18T08:53:02;100430.31;;;10.61;100.00
71424;BME280;59240;51.370;-0.486;2023-03-18T08:55:33;100457.50;;;10.82;100.00
71424;BME280;59240;51.370;-0.486;2023-03-18T08:58:17;100410.50;;;10.55;100.00
71424;BME280;59240;51.370;-0.486;2023-03-18T09:01:09;100451.50;;;10.80;100.00
71424;BME280;59240;51.370;-0.486;2023-03-18T09:03:37;100442.88;;;10.78;100.00
71424;BME280;59240;51.370;-0.486;2023-03-18T09:06:18;100406.97;;;10.58;100.00
71424;BME280;59240;51.370;-0.486;2023-03-18T09:09:20;100426.56;;;10.71;100.00
71424;BME280;59240;51.370;-0.486;2023-03-18T09:12:31;100400.69;;;10.65;100.00
71424;BME280;59240;51.370;-0.486;2023-03-18T09:15:12;100421.88;;;10.82;100.00
71424;BME280;59240;51.370;-0.486;2023-03-18T09:18:19;100409.88;;;10.78;100.00
71424;BME280;59240;51.370;-0.486;2023-03-18T09:20:50;100422.63;;;10.87;100.00
71424;BME280;59240;51.370;-0.486;2023-03-18T09:23:24;100438.69;;;11.02;100.00
71424;BME280;59240;51.370;-0.486;2023-03-18T09:29:29;100423.00;;;11.03;100.00
71424;BME280;59240;51.370;-0.486;2023-03-18T09:31:59;100437.34;;;11.18;100.00
71424;BME280;59240;51.370;-0.486;2023-03-18T09:34:30;100413.19;;;11.13;100.00
71424;BME280;59240;51.370;-0.486;2023-03-18T09:40:53;100451.78;;;11.58;100.00
71424;BME280;59240;51.370;-0.486;2023-03-18T09:52:01;100479.56;;;12.15;100.00
71424;BME280;59240;51.370;-0.486;2023-03-18T09:54:59;100393.75;;;11.77;100.00
71424;BME280;59240;51.370;-0.486;2023-03-18T09:57:41;100455.81;;;12.22;100.00
71424;BME280;59240;51.370;-0.486;2023-03-18T10:00:45;100409.41;;;12.04;100.00
71424;BME280;59240;51.370;-0.486;2023-03-18T10:08:23;100428.31;;;12.37;100.00
71424;BME280;59240;51.370;-0.486;2023-03-18T10:12:28;100393.53;;;12.35;100.00
71424;BME280;59240;51.370;-0.486;2023-03-18T10:15:32;100420.06;;;12.48;100.00
71424;BME280;59240;51.370;-0.486;2023-03-18T10:19:06;100417.31;;;12.52;100.00
71424;BME280;59240;51.370;-0.486;2023-03-18T10:28:49;100497.13;;;13.09;100.00
71424;BME280;59240;51.370;-0.486;2023-03-18T10:34:18;100417.09;;;12.58;100.00
71424;BME280;59240;51.370;-0.486;2023-03-18T10:37:17;100476.72;;;12.96;100.00
71424;BME280;59240;51.370;-0.486;2023-03-18T10:40:01;100432.22;;;12.74;100.00
71424;BME280;59240;51.370;-0.486;2023-03-18T10:42:33;100502.94;;;13.18;100.00
71424;BME280;59240;51.370;-0.486;2023-03-18T10:45:29;100440.53;;;12.85;100.00
71424;BME280;59240;51.370;-0.486;2023-03-18T10:48:16;100478.09;;;13.06;100.00
71424;BME280;59240;51.370;-0.486;2023-03-18T10:51:29;100507.25;;;13.19;100.00
71424;BME280;59240;51.370;-0.486;2023-03-18T10:54:11;100493.03;;;13.02;100.00
71424;BME280;59240;51.370;-0.486;2023-03-18T10:56:46;100441.09;;;12.70;100.00
71424;BME280;59240;51.370;-0.486;2023-03-18T10:59:24;100427.19;;;12.68;100.00
71424;BME280;59240;51.370;-0.486;2023-03-18T11:02:18;100457.78;;;12.89;100.00
71424;BME280;59240;51.370;-0.486;2023-03-18T11:08:30;100477.53;;;12.98;100.00
71424;BME280;59240;51.370;-0.486;2023-03-18T11:11:30;100432.34;;;12.71;100.00
71424;BME280;59240;51.370;-0.486;2023-03-18T11:14:17;100491.31;;;13.01;100.00
71424;BME280;59240;51.370;-0.486;2023-03-18T11:17:32;100433.28;;;12.68;100.00
71424;BME280;59240;51.370;-0.486;2023-03-18T11:20:13;100447.88;;;12.74;100.00
71424;BME280;59240;51.370;-0.486;2023-03-18T12:43:21;100524.38;;;12.79;100.00
71424;BME280;59240;51.370;-0.486;2023-03-18T12:45:58;100550.22;;;12.63;100.00
71424;BME280;59240;51.370;-0.486;2023-03-18T12:48:47;100536.09;;;12.42;100.00
71424;BME280;59240;51.370;-0.486;2023-03-18T12:51:24;100543.88;;;12.44;100.00
71424;BME280;59240;51.370;-0.486;2023-03-18T12:54:08;100522.34;;;12.37;100.00
71424;BME280;59240;51.370;-0.486;2023-03-18T12:56:41;100523.00;;;12.44;100.00
71424;BME280;59240;51.370;-0.486;2023-03-18T12:59:18;100513.28;;;12.47;100.00
71424;BME280;59240;51.370;-0.486;2023-03-18T13:04:21;100530.34;;;13.07;100.00
71424;BME280;59240;51.370;-0.486;2023-03-18T13:07:14;100499.38;;;13.20;100.00
71424;BME280;59240;51.370;-0.486;2023-03-18T13:09:51;100542.78;;;13.71;100.00
71424;BME280;59240;51.370;-0.486;2023-03-18T13:13:13;100517.22;;;13.78;100.00
71424;BME280;59240;51.370;-0.486;2023-03-18T13:16:23;100543.06;;;14.09;100.00
71424;BME280;59240;51.370;-0.486;2023-03-18T13:30:15;100554.16;;;14.15;100.00
71424;BME280;59240;51.370;-0.486;2023-03-18T13:40:14;100563.88;;;13.68;100.00
71424;BME280;59240;51.370;-0.486;2023-03-18T13:42:37;100535.97;;;13.45;100.00
71424;BME280;59240;51.370;-0.486;2023-03-18T13:48:34;100530.34;;;13.07;100.00
71424;BME280;59240;51.370;-0.486;2023-03-18T13:53:53;100538.25;;;13.06;100.00
71424;BME280;59240;51.370;-0.486;2023-03-18T13:56:45;100547.50;;;13.39;100.00
71424;BME280;59240;51.370;-0.486;2023-03-18T14:04:51;100567.66;;;14.27;100.00
71424;BME280;59240;51.370;-0.486;2023-03-18T14:07:28;100559.50;;;14.34;100.00
71424;BME280;59240;51.370;-0.486;2023-03-18T14:10:16;100526.28;;;14.35;100.00
71424;BME280;59240;51.370;-0.486;2023-03-18T14:12:50;100524.59;;;14.54;100.00
71424;BME280;59240;51.370;-0.486;2023-03-18T14:15:45;100564.59;;;14.80;100.00
71424;BME280;59240;51.370;-0.486;2023-03-18T14:18:33;100535.66;;;14.62;100.00
71424;BME280;59240;51.370;-0.486;2023-03-18T14:28:24;100556.22;;;14.71;100.00
71424;BME280;59240;51.370;-0.486;2023-03-18T14:32:01;100526.28;;;14.96;100.00
71424;BME280;59240;51.370;-0.486;2023-03-18T14:36:11;100520.78;;;15.02;100.00
71424;BME280;59240;51.370;-0.486;2023-03-18T16:56:08;100571.38;;;13.54;100.00
71424;BME280;59240;51.370;-0.486;2023-03-18T17:12:27;100580.59;;;13.15;100.00
71424;BME280;59240;51.370;-0.486;2023-03-18T18:03:43;100664.44;;;12.59;100.00
71424;BME280;59240;51.370;-0.486;2023-03-18T18:12:12;100668.34;;;12.46;100.00
71424;BME280;59240;51.370;-0.486;2023-03-18T18:30:02;100716.53;;;12.07;100.00
71424;BME280;59240;51.370;-0.486;2023-03-18T22:30:55;100851.28;;;8.63;100.00
71424;BME280;59240;51.370;-0.486;2023-03-18T22:38:52;100853.09;;;8.56;100.00
71424;BME280;59240;51.370;-0.486;2023-03-18T23:11:17;100844.38;;;7.82;100.00
71424;BME280;59240;51.370;-0.486;2023-03-18T23:22:59;100851.44;;;7.69;100.00
71424;BME280;59240;51.370;-0.486;2023-03-18T23:25:37;100882.44;;;7.83;100.00
71424;BME280;59240;51.370;-0.486;2023-03-18T23:28:12;100892.72;;;7.89;100.00
71424;BME280;59240;51.370;-0.486;2023-03-18T23:31:06;100886.78;;;7.82;100.00
71424;BME280;59240;51.370;-0.486;2023-03-18T23:38:22;100875.59;;;7.76;100.00
71424;BME280;59240;51.370;-0.486;2023-03-18T23:41:12;100876.44;;;7.78;100.00
71424;BME280;59240;51.370;-0.486;2023-03-18T23:52:55;100958.22;;;8.15;100.00
71424;BME280;59240;51.370;-0.486;2023-03-18T23:56:10;100927.25;;;7.97;100.00
71424;BME280;59240;51.370;-0.486;2023-03-18T23:58:39;100927.25;;;7.97;100.00
